createdAt,value
2022-12-06T00:01:09.109Z,100525.97
2022-12-06T00:04:13.885Z,100534.78
2022-12-06T00:07:16.674Z,100537.50
2022-12-06T00:10:20.865Z,100535.72
2022-12-06T00:13:23.701Z,100542.00
2022-12-06T00:16:27.648Z,100540.16
2022-12-06T00:19:32.598Z,100538.28
2022-12-06T00:22:35.429Z,100534.66
2022-12-06T00:25:42.067Z,100530.16
2022-12-06T00:28:45.584Z,100531.03
2022-12-06T00:31:51.338Z,100515.72
2022-12-06T00:34:56.136Z,100523.75
2022-12-06T00:37:58.933Z,100507.59
2022-12-06T00:41:04.908Z,100505.81
2022-12-06T00:44:10.828Z,100506.72
2022-12-06T00:47:13.688Z,100505.84
2022-12-06T00:50:16.668Z,100496.03
2022-12-06T00:53:28.717Z,100504.09
2022-12-06T00:56:33.636Z,100497.84
2022-12-06T00:59:38.542Z,100497.84
2022-12-06T01:02:42.203Z,100500.47
2022-12-06T01:05:46.985Z,100499.56
2022-12-06T01:08:51.177Z,100500.38
2022-12-06T01:11:58.231Z,100500.34
2022-12-06T01:15:00.991Z,100498.50
2022-12-06T01:18:06.071Z,100502.88
2022-12-06T01:21:09.915Z,100472.72
2022-12-06T01:24:12.634Z,100498.31
2022-12-06T01:27:16.638Z,100493.88
2022-12-06T01:30:19.385Z,100497.44
2022-12-06T01:33:22.172Z,100492.09
2022-12-06T01:36:26.465Z,100497.44
2022-12-06T01:39:29.238Z,100501.84
2022-12-06T01:42:33.355Z,100501.84
2022-12-06T01:45:36.201Z,100498.31
2022-12-06T01:48:40.188Z,100492.06
2022-12-06T01:51:48.211Z,100490.31
2022-12-06T01:54:58.371Z,100488.56
2022-12-06T01:58:08.419Z,100481.47
2022-12-06T02:01:11.845Z,100482.25
2022-12-06T02:04:16.011Z,100485.81
2022-12-06T02:07:18.829Z,100478.63
2022-12-06T02:10:21.786Z,100477.72
2022-12-06T02:13:26.918Z,100484.78
2022-12-06T02:16:53.443Z,100474.94
2022-12-06T02:20:14.669Z,100482.09
2022-12-06T02:24:06.633Z,100470.47
2022-12-06T02:27:35.182Z,100475.88
2022-12-06T02:30:45.105Z,100472.28
2022-12-06T02:33:51.716Z,100470.50
2022-12-06T02:37:01.025Z,100476.75
2022-12-06T02:40:07.972Z,100468.66
2022-12-06T02:43:14.752Z,100477.72
2022-12-06T02:46:24.463Z,100468.75
2022-12-06T02:49:33.281Z,100465.09
2022-12-06T02:52:39.985Z,100465.97
2022-12-06T02:55:43.913Z,100461.50
2022-12-06T02:58:48.061Z,100466.84
2022-12-06T03:01:56.917Z,100466.84
2022-12-06T03:05:11.152Z,100460.47
2022-12-06T03:08:24.298Z,100433.78
2022-12-06T03:11:30.668Z,100454.03
2022-12-06T03:14:39.663Z,100425.72
2022-12-06T03:17:48.981Z,100451.44
2022-12-06T03:20:55.925Z,100435.34
2022-12-06T03:23:59.689Z,100442.56
2022-12-06T03:27:07.531Z,100439.88
2022-12-06T03:30:13.442Z,100447.88
2022-12-06T03:33:20.370Z,100450.47
2022-12-06T03:36:25.790Z,100444.19
2022-12-06T03:39:36.344Z,100439.72
2022-12-06T03:42:39.723Z,100432.50
2022-12-06T03:45:47.990Z,100425.34
2022-12-06T03:48:57.023Z,100435.19
2022-12-06T03:52:03.373Z,100431.63
2022-12-06T03:55:09.429Z,100438.81
2022-12-06T03:58:13.018Z,100413.03
2022-12-06T04:01:15.827Z,100434.28
2022-12-06T04:04:20.338Z,100427.09
2022-12-06T04:07:23.824Z,100428.88
2022-12-06T04:10:29.676Z,100419.97
2022-12-06T04:13:33.199Z,100407.38
2022-12-06T04:16:56.450Z,100417.25
2022-12-06T04:20:00.936Z,100405.59
2022-12-06T04:23:05.660Z,100408.09
2022-12-06T04:26:10.425Z,100401.00
2022-12-06T04:29:30.642Z,100398.31
2022-12-06T04:32:50.757Z,100397.41
2022-12-06T04:36:14.748Z,100399.19
2022-12-06T04:39:20.597Z,100398.31
2022-12-06T04:42:47.387Z,100391.16
2022-12-06T04:45:52.125Z,100392.88
2022-12-06T04:48:55.066Z,100393.75
2022-12-06T04:51:59.133Z,100391.03
2022-12-06T04:55:02.081Z,100394.66
2022-12-06T04:58:05.329Z,100391.91
2022-12-06T05:01:08.160Z,100390.06
2022-12-06T05:04:11.117Z,100398.22
2022-12-06T05:07:15.385Z,100392.88
2022-12-06T05:10:18.275Z,100397.22
2022-12-06T05:13:21.566Z,100399.94
2022-12-06T05:16:24.397Z,100393.63
2022-12-06T05:19:27.956Z,100390.81
2022-12-06T05:22:34.759Z,100394.34
2022-12-06T05:25:37.544Z,100393.38
2022-12-06T05:28:40.331Z,100374.50
2022-12-06T05:31:51.055Z,100386.09
2022-12-06T05:34:53.768Z,100383.31
2022-12-06T05:37:58.011Z,100387.06
2022-12-06T05:41:00.764Z,100388.50
2022-12-06T05:44:03.588Z,100393.31
2022-12-06T05:47:06.464Z,100361.59
2022-12-06T05:50:09.985Z,100408.84
2022-12-06T05:53:17.435Z,100394.72
2022-12-06T05:56:22.664Z,100404.53
2022-12-06T05:59:25.459Z,100401.44
2022-12-06T06:02:28.316Z,100407.03
2022-12-06T06:05:31.817Z,100385.03
2022-12-06T06:08:35.928Z,100398.09
2022-12-06T06:11:38.668Z,100394.88
2022-12-06T06:14:41.417Z,100407.16
2022-12-06T06:17:51.763Z,100403.78
2022-12-06T06:20:55.965Z,100398.44
2022-12-06T06:24:00.382Z,100410.97
2022-12-06T06:27:04.136Z,100410.16
2022-12-06T06:30:09.255Z,100401.84
2022-12-06T06:33:12.030Z,100399.22
2022-12-06T06:36:15.444Z,100407.41
2022-12-06T06:39:20.293Z,100411.75
2022-12-06T06:42:29.273Z,100404.81
2022-12-06T06:45:32.047Z,100406.41
2022-12-06T06:48:36.615Z,100397.56
2022-12-06T06:51:39.325Z,100412.66
2022-12-06T06:54:43.438Z,100420.84
2022-12-06T06:57:47.630Z,100414.47
2022-12-06T07:00:55.073Z,100420.66
2022-12-06T07:03:57.996Z,100426.00
2022-12-06T07:07:00.730Z,100416.16
2022-12-06T07:10:05.511Z,100386.94
2022-12-06T07:13:08.229Z,100409.78
2022-12-06T07:16:15.831Z,100407.09
2022-12-06T07:19:18.834Z,100407.06
2022-12-06T07:22:21.628Z,100402.53
2022-12-06T07:25:26.159Z,100410.63
2022-12-06T07:28:28.906Z,100408.69
2022-12-06T07:31:32.321Z,100413.16
2022-12-06T07:34:38.881Z,100414.00
2022-12-06T07:37:45.220Z,100412.03
2022-12-06T07:41:04.566Z,100413.13
2022-12-06T07:44:27.249Z,100415.75
2022-12-06T07:47:33.744Z,100408.91
2022-12-06T07:50:45.611Z,100412.38
2022-12-06T07:53:48.435Z,100409.69
2022-12-06T07:56:59.973Z,100418.91
2022-12-06T08:00:05.230Z,100411.56
2022-12-06T08:03:08.899Z,100406.66
2022-12-06T08:06:14.504Z,100418.69
2022-12-06T08:09:17.267Z,100419.47
2022-12-06T08:12:22.848Z,100412.16
2022-12-06T08:15:27.912Z,100408.59
2022-12-06T08:18:31.303Z,100417.66
2022-12-06T08:21:40.240Z,100411.41
2022-12-06T08:24:42.993Z,100420.22
2022-12-06T08:27:47.165Z,100416.59
2022-12-06T08:30:50.169Z,100432.19
2022-12-06T08:33:53.449Z,100438.53
2022-12-06T08:37:00.326Z,100436.63
2022-12-06T08:40:07.399Z,100443.63
2022-12-06T08:43:11.738Z,100432.84
2022-12-06T08:46:14.561Z,100440.75
2022-12-06T08:49:18.453Z,100425.38
2022-12-06T08:52:21.480Z,100440.34
2022-12-06T08:55:24.376Z,100436.59
2022-12-06T08:58:28.479Z,100435.72
2022-12-06T09:01:37.696Z,100442.66
2022-12-06T09:04:41.050Z,100437.00
2022-12-06T09:07:44.122Z,100424.22
2022-12-06T09:10:46.986Z,100423.16
2022-12-06T09:13:51.191Z,100422.09
2022-12-06T09:16:54.111Z,100420.00
2022-12-06T09:20:02.129Z,100425.28
2022-12-06T09:23:08.281Z,100424.25
2022-12-06T09:26:11.187Z,100395.56
2022-12-06T09:29:16.210Z,100421.16
2022-12-06T09:32:18.957Z,100418.44
2022-12-06T09:35:25.256Z,100429.81
2022-12-06T09:38:30.333Z,100424.19
2022-12-06T09:42:00.114Z,100412.22
2022-12-06T09:45:39.720Z,100415.59
2022-12-06T09:49:03.313Z,100407.44
2022-12-06T09:52:34.964Z,100410.03
2022-12-06T09:55:55.616Z,100405.34
2022-12-06T09:59:15.844Z,100408.84
2022-12-06T10:02:38.140Z,100401.88
2022-12-06T10:05:58.124Z,100405.22
2022-12-06T10:09:26.556Z,100398.31
2022-12-06T10:12:45.978Z,100399.63
2022-12-06T10:15:56.171Z,100396.31
2022-12-06T10:19:23.373Z,100400.81
2022-12-06T10:22:39.287Z,100402.03
2022-12-06T10:25:43.444Z,100401.88
2022-12-06T10:28:58.756Z,100398.25
2022-12-06T10:32:12.251Z,100406.31
2022-12-06T10:35:22.647Z,100407.28
2022-12-06T10:38:34.577Z,100413.69
2022-12-06T10:41:41.427Z,100407.19
2022-12-06T10:44:49.089Z,100411.03
2022-12-06T10:47:54.025Z,100412.97
2022-12-06T10:51:05.272Z,100418.97
2022-12-06T10:54:22.649Z,100413.88
2022-12-06T10:57:31.938Z,100413.94
2022-12-06T11:00:39.210Z,100415.53
2022-12-06T11:03:56.676Z,100419.34
2022-12-06T11:07:09.354Z,100416.78
2022-12-06T11:10:18.994Z,100406.03
2022-12-06T11:13:27.331Z,100415.53
2022-12-06T11:16:37.467Z,100416.47
2022-12-06T11:19:45.593Z,100413.25
2022-12-06T11:22:55.939Z,100423.31
2022-12-06T11:26:18.112Z,100413.25
2022-12-06T11:29:24.804Z,100414.28
2022-12-06T11:32:27.624Z,100408.59
2022-12-06T11:35:30.447Z,100413.19
2022-12-06T11:38:35.664Z,100395.66
2022-12-06T11:41:38.725Z,100412.16
2022-12-06T11:44:49.748Z,100411.44
2022-12-06T11:47:54.883Z,100383.59
2022-12-06T11:50:57.936Z,100404.22
2022-12-06T11:54:24.195Z,100400.94
2022-12-06T11:57:29.243Z,100400.75
2022-12-06T12:00:32.013Z,100398.19
2022-12-06T12:03:36.685Z,100399.91
2022-12-06T12:06:42.674Z,100399.81
2022-12-06T12:09:57.526Z,100395.16
2022-12-06T12:13:34.991Z,100393.97
2022-12-06T12:16:44.105Z,100391.50
2022-12-06T12:19:51.807Z,100384.38
2022-12-06T12:23:00.488Z,100388.69
2022-12-06T12:26:13.207Z,100387.66
2022-12-06T12:29:19.038Z,100382.13
2022-12-06T12:32:22.013Z,100385.53
2022-12-06T12:35:34.392Z,100380.97
2022-12-06T12:38:41.852Z,100386.22
2022-12-06T12:41:46.381Z,100387.09
2022-12-06T12:44:49.340Z,100392.50
2022-12-06T12:48:00.108Z,100394.97
2022-12-06T12:51:06.655Z,100393.19
2022-12-06T12:54:22.047Z,100391.34
2022-12-06T12:57:26.193Z,100396.59
2022-12-06T13:00:33.294Z,100390.19
2022-12-06T13:03:51.043Z,100386.41
2022-12-06T13:06:59.250Z,100388.03
2022-12-06T13:10:06.609Z,100380.69
2022-12-06T13:13:17.564Z,100386.75
2022-12-06T13:16:24.913Z,100386.78
2022-12-06T13:19:36.493Z,100383.22
2022-12-06T13:22:45.217Z,100377.88
2022-12-06T13:25:52.990Z,100367.16
2022-12-06T13:29:04.289Z,100370.66
2022-12-06T13:32:14.355Z,100369.66
2022-12-06T13:35:26.652Z,100372.38
2022-12-06T13:38:33.225Z,100371.50
2022-12-06T13:42:12.114Z,100364.44
2022-12-06T13:45:45.505Z,100367.16
2022-12-06T13:48:52.747Z,100359.94
2022-12-06T13:51:55.557Z,100360.53
2022-12-06T13:54:58.258Z,100359.31
2022-12-06T13:58:34.390Z,100367.38
2022-12-06T14:01:42.734Z,100367.31
2022-12-06T14:04:45.558Z,100374.31
2022-12-06T14:07:48.357Z,100379.00
2022-12-06T14:10:51.262Z,100371.13
2022-12-06T14:14:03.439Z,100378.22
2022-12-06T14:17:26.756Z,100374.69
2022-12-06T14:20:56.412Z,100378.28
2022-12-06T14:23:59.402Z,100361.41
2022-12-06T14:27:13.524Z,100370.44
2022-12-06T14:30:25.262Z,100372.22
2022-12-06T14:33:39.701Z,100367.84
2022-12-06T14:36:42.785Z,100367.00
2022-12-06T14:39:53.181Z,100368.75
2022-12-06T14:43:02.136Z,100371.53
2022-12-06T14:46:07.453Z,100367.97
2022-12-06T14:49:32.769Z,100373.53
2022-12-06T14:52:56.643Z,100371.81
2022-12-06T14:56:02.123Z,100369.06
2022-12-06T14:59:12.061Z,100370.09
2022-12-06T15:02:23.666Z,100372.91
2022-12-06T15:05:36.821Z,100379.28
2022-12-06T15:08:42.336Z,100371.22
2022-12-06T15:12:02.936Z,100380.56
2022-12-06T15:15:06.871Z,100377.16
2022-12-06T15:18:24.129Z,100374.38
2022-12-06T15:21:28.270Z,100375.53
2022-12-06T15:24:32.274Z,100377.34
2022-12-06T15:27:37.570Z,100380.97
2022-12-06T15:30:43.377Z,100381.94
2022-12-06T15:33:47.136Z,100371.84
2022-12-06T15:37:08.968Z,100359.47
2022-12-06T15:40:16.018Z,100378.13
2022-12-06T15:43:28.864Z,100379.88
2022-12-06T15:46:32.736Z,100380.81
2022-12-06T15:49:36.052Z,100379.22
2022-12-06T15:52:46.348Z,100393.44
2022-12-06T15:55:50.487Z,100361.47
2022-12-06T15:58:53.342Z,100384.59
2022-12-06T16:01:56.092Z,100393.50
2022-12-06T16:04:59.386Z,100389.00
2022-12-06T16:08:06.685Z,100391.69
2022-12-06T16:11:12.042Z,100388.06
2022-12-06T16:14:22.910Z,100389.75
2022-12-06T16:17:25.722Z,100386.06
2022-12-06T16:20:35.151Z,100384.47
2022-12-06T16:24:13.412Z,100374.56
2022-12-06T16:27:16.450Z,100377.22
2022-12-06T16:30:31.932Z,100379.91
2022-12-06T16:33:34.782Z,100382.50
2022-12-06T16:36:54.474Z,100377.09
2022-12-06T16:39:58.521Z,100378.81
2022-12-06T16:43:04.322Z,100377.94
2022-12-06T16:46:20.737Z,100376.97
2022-12-06T16:52:51.782Z,100383.22
2022-12-06T16:55:55.969Z,100380.44
2022-12-06T16:58:59.302Z,100378.75
2022-12-06T17:02:02.267Z,100379.69
2022-12-06T17:05:06.901Z,100382.34
2022-12-06T17:08:09.984Z,100375.22
2022-12-06T17:11:35.822Z,100359.25
2022-12-06T17:14:39.036Z,100369.81
2022-12-06T17:17:42.160Z,100368.16
2022-12-06T17:20:44.828Z,100368.16
2022-12-06T17:23:47.727Z,100374.41
2022-12-06T17:26:53.960Z,100367.53
2022-12-06T17:29:56.664Z,100377.44
2022-12-06T17:32:59.396Z,100376.53
2022-12-06T17:36:07.332Z,100375.59
2022-12-06T17:39:11.421Z,100374.56
2022-12-06T17:42:29.676Z,100374.56
2022-12-06T17:45:32.420Z,100377.25
2022-12-06T17:48:39.008Z,100382.59
2022-12-06T17:51:44.344Z,100380.91
2022-12-06T17:54:47.073Z,100385.59
2022-12-06T17:57:51.221Z,100383.91
2022-12-06T18:00:59.706Z,100384.81
2022-12-06T18:04:04.203Z,100380.31
2022-12-06T18:07:07.225Z,100385.69
2022-12-06T18:10:11.092Z,100383.84
2022-12-06T18:13:15.179Z,100377.53
2022-12-06T18:16:19.679Z,100384.69
2022-12-06T18:19:23.507Z,100379.25
2022-12-06T18:22:26.272Z,100385.41
2022-12-06T18:25:29.111Z,100383.78
2022-12-06T18:28:33.345Z,100387.31
2022-12-06T18:31:37.102Z,100392.69
2022-12-06T18:34:39.864Z,100386.38
2022-12-06T18:37:42.576Z,100383.69
2022-12-06T18:40:45.353Z,100382.75
2022-12-06T18:43:49.964Z,100380.19
2022-12-06T18:46:53.492Z,100390.78
2022-12-06T18:49:56.547Z,100397.94
2022-12-06T18:53:00.944Z,100393.44
2022-12-06T18:56:04.882Z,100396.06
2022-12-06T18:59:10.207Z,100389.91
2022-12-06T19:02:13.662Z,100396.19
2022-12-06T19:05:32.956Z,100397.13
2022-12-06T19:08:42.528Z,100390.97
2022-12-06T19:11:51.149Z,100388.38
2022-12-06T19:14:55.213Z,100394.69
2022-12-06T19:17:58.154Z,100379.63
2022-12-06T19:21:02.023Z,100383.22
2022-12-06T19:24:05.437Z,100390.19
2022-12-06T19:27:08.266Z,100388.53
2022-12-06T19:30:14.909Z,100383.31
2022-12-06T19:33:17.837Z,100401.13
2022-12-06T19:36:22.776Z,100390.47
2022-12-06T19:39:30.958Z,100398.41
2022-12-06T19:42:52.873Z,100398.34
2022-12-06T19:45:56.967Z,100400.41
2022-12-06T19:49:02.176Z,100390.59
2022-12-06T19:52:05.188Z,100399.50
2022-12-06T19:55:08.445Z,100380.69
2022-12-06T19:58:11.720Z,100385.09
2022-12-06T20:01:21.378Z,100384.25
2022-12-06T20:04:33.667Z,100387.69
2022-12-06T20:07:37.012Z,100393.22
2022-12-06T20:10:40.220Z,100400.41
2022-12-06T20:13:42.950Z,100401.22
2022-12-06T20:16:47.055Z,100403.03
2022-12-06T20:19:49.986Z,100399.56
2022-12-06T20:22:52.715Z,100399.56
2022-12-06T20:25:58.060Z,100396.84
2022-12-06T20:29:02.201Z,100399.47
2022-12-06T20:32:06.804Z,100404.00
2022-12-06T20:35:10.070Z,100394.97
2022-12-06T20:38:12.871Z,100391.44
2022-12-06T20:41:19.017Z,100405.75
2022-12-06T20:44:22.279Z,100412.09
2022-12-06T20:47:26.373Z,100412.19
2022-12-06T20:50:29.093Z,100393.38
2022-12-06T20:53:32.868Z,100394.19
2022-12-06T20:56:39.056Z,100386.13
2022-12-06T20:59:41.865Z,100395.97
2022-12-06T21:02:46.020Z,100391.50
2022-12-06T21:05:55.015Z,100395.97
2022-12-06T21:08:58.044Z,100388.91
2022-12-06T21:12:05.146Z,100389.81
2022-12-06T21:15:09.040Z,100400.53
2022-12-06T21:18:17.378Z,100393.38
2022-12-06T21:21:23.182Z,100390.75
2022-12-06T21:24:26.014Z,100402.34
2022-12-06T21:27:29.625Z,100401.50
2022-12-06T21:30:32.730Z,100397.06
2022-12-06T21:33:36.936Z,100397.16
2022-12-06T21:36:39.650Z,100398.09
2022-12-06T21:39:46.278Z,100398.84
2022-12-06T21:42:49.036Z,100394.53
2022-12-06T21:45:51.747Z,100399.94
2022-12-06T21:49:03.505Z,100404.41
2022-12-06T21:52:09.353Z,100396.44
2022-12-06T21:55:12.373Z,100401.69
2022-12-06T21:58:18.158Z,100400.91
2022-12-06T22:01:24.159Z,100407.16
2022-12-06T22:04:28.565Z,100402.66
2022-12-06T22:07:33.754Z,100404.53
2022-12-06T22:10:41.341Z,100400.97
2022-12-06T22:13:44.348Z,100399.25
2022-12-06T22:16:47.104Z,100406.56
2022-12-06T22:19:51.832Z,100409.44
2022-12-06T22:22:54.505Z,100417.66
2022-12-06T22:25:57.254Z,100417.13
2022-12-06T22:29:00.945Z,100425.44
2022-12-06T22:32:04.406Z,100421.22
2022-12-06T22:35:09.499Z,100415.25
2022-12-06T22:38:12.445Z,100412.75
2022-12-06T22:41:15.143Z,100422.84
2022-12-06T22:44:18.109Z,100417.69
2022-12-06T22:47:20.866Z,100409.94
2022-12-06T22:50:24.966Z,100409.25
2022-12-06T22:53:27.717Z,100417.50
2022-12-06T22:56:33.169Z,100413.28
2022-12-06T22:59:38.273Z,100411.66
2022-12-06T23:02:41.008Z,100419.94
2022-12-06T23:05:45.135Z,100428.13
2022-12-06T23:08:48.054Z,100420.28
2022-12-06T23:11:50.825Z,100430.13
2022-12-06T23:14:53.613Z,100432.00
2022-12-06T23:17:56.336Z,100427.63
2022-12-06T23:21:07.875Z,100433.06
2022-12-06T23:24:12.488Z,100438.53
2022-12-06T23:27:17.008Z,100440.34
2022-12-06T23:30:19.848Z,100440.38
2022-12-06T23:33:22.940Z,100433.25
2022-12-06T23:36:29.034Z,100412.91
2022-12-06T23:39:31.890Z,100436.81
2022-12-06T23:42:34.593Z,100436.78
2022-12-06T23:45:37.385Z,100440.25
2022-12-06T23:48:41.594Z,100444.63
2022-12-06T23:51:46.769Z,100448.94
2022-12-06T23:54:49.477Z,100438.13
2022-12-06T23:57:52.381Z,100433.47
